Pompano Beach, FL

7:26 AM EDT on October 23, 2014 (GMT -0400)
Lighthouse Point Estates | Change Station
CLOSE
Current Station
Personal Weather Station
Location: Lighthouse Point, FL
Elevation: 4 ft
Nearby Weather Stations

Elev 4 ft 26.27 °N, 80.10 °W | Updated 2 seconds ago

Light Rain
Light Rain Mist
74.3 °F
Feels Like 73 °F
N
0.0
Wind Variable Wind from East
Gusts 3.0 mph

Today
High -- | Low -- °F
--% Chance of Precip.
Yesterday
High -- | Low -- °F
Precip. -- in
7:23 AM 6:45 PM
Waning Crescent, 0% visible
Pressure 29.90 in
Visibility 3.0 miles
Clouds Few 800 ft
Mostly Cloudy 3500 ft
Overcast 5500 ft
Heat Index 73 °F
Dew Point 70 °F
Humidity 87%
Rainfall 0.11 in
Snow Depth Not available.
UV 0 out of 12
Pollen 3.80 out of 12
Air Quality Not available.
Flu Activity Local Activity
METAR KPMP 231103Z AUTO 06006KT 3SM -RA BR FEW008 BKN035 OVC055 24/23 A2990 RMK AO2 P0002 T02390233

More Conditions Fewer Conditions

Pressure 29.90 in
Visibility 3.0 miles
Clouds Few 800 ft
Mostly Cloudy 3500 ft
Overcast 5500 ft
Heat Index 73 °F
Dew Point 70 °F
Humidity 87%
Rainfall 0.11 in
Snow Depth Not available.
UV 0 out of 12
Pollen 3.80 out of 12
Air Quality Not available.
Flu Activity Local Activity
METAR KPMP 231103Z AUTO 06006KT 3SM -RA BR FEW008 BKN035 OVC055 24/23 A2990 RMK AO2 P0002 T02390233

More Conditions Fewer Conditions

Nowcast | as of 7:00 am EDT on October 23, 2014

Widespread light to moderate showers continue to slowly push to the northeast across much of the area this morning. Rainfall amounts should only be around a few hundredths of an inch per hour through the morning.

×

10-Day Weather Forecast

Almanac

Astronomy

Oct. 23, 2014 Rise Set
Actual Time 7:23 AM EDT 6:45 PM EDT
Civil Twilight 7:00 AM EDT 7:08 PM EDT
Nautical Twilight 6:33 AM EDT 7:35 PM EDT
Astronomical Twilight 6:06 AM EDT 8:02 PM EDT
Moon 7:04 AM EDT 6:45 PM EDT
Length of Visible Light 12h 08m
Length of Day
11h 21m
Tomorrow will be 1m 26s shorter.
Waning Crescent, 0% of the Moon is Illuminated
Today
Waning Crescent
Oct 23
New
Oct 30
First Quarter
Nov 6
Full
Nov 14
Last Quarter

Today's Extremes

State Highs State Lows

Community

WunderPhotos

Upload Photos

1,764,206 photos uploaded!

Nearby

Air Quality

  Air Quality AQ Index Pollutant
Thursday Good
OZONE
Thursday Good
PM2.5
Friday Good
OZONE
Friday Good
PM2.5
Saturday Good
OZONE
Saturday Good
PM2.5
Sunday Good
OZONE
Sunday Good
PM2.5

Snow Depth

Station Depth Elevation
No new snow has been reported.

Earthquake Activity

City Distance Mag. Time & Date
No recent earthquake activity has been reported nearby.
Minimum magnitude displayed is 2.5.

Coastal Water Temperatures

Place Temperature
Virginia Key, FL 81.0 °F

Nearby Weather Stations